createdAt,value
2019-02-19T00:01:57.853Z,7.80
2019-02-19T00:04:27.216Z,7.90
2019-02-19T00:06:56.557Z,7.90
2019-02-19T00:09:25.923Z,8.10
2019-02-19T00:11:55.217Z,8.10
2019-02-19T00:14:24.589Z,8.20
2019-02-19T00:16:53.946Z,8.30
2019-02-19T00:19:23.246Z,8.30
2019-02-19T00:21:52.555Z,8.30
2019-02-19T00:24:21.941Z,8.40
2019-02-19T00:26:51.351Z,8.40
2019-02-19T00:29:20.745Z,8.40
2019-02-19T00:31:50.085Z,8.50
2019-02-19T00:34:19.464Z,8.50
2019-02-19T00:36:48.886Z,8.60
2019-02-19T00:39:18.177Z,8.60
2019-02-19T00:41:47.526Z,8.60
2019-02-19T00:44:16.916Z,8.60
2019-02-19T00:46:46.312Z,8.60
2019-02-19T00:49:15.689Z,8.60
2019-02-19T00:51:45.068Z,8.60
2019-02-19T00:54:14.354Z,8.60
2019-02-19T00:56:43.710Z,8.60
2019-02-19T00:59:13.043Z,8.60
2019-02-19T01:01:42.449Z,8.60
2019-02-19T01:04:11.754Z,8.60
2019-02-19T01:06:41.105Z,8.60
2019-02-19T01:09:11.083Z,8.50
2019-02-19T01:11:40.431Z,8.50
2019-02-19T01:14:09.811Z,8.50
2019-02-19T01:16:39.101Z,8.50
2019-02-19T01:19:08.467Z,8.50
2019-02-19T01:21:37.865Z,8.50
2019-02-19T01:24:07.156Z,8.50
2019-02-19T01:26:36.436Z,8.50
2019-02-19T01:29:05.804Z,8.50
2019-02-19T01:31:35.163Z,8.50
2019-02-19T01:34:04.521Z,8.40
2019-02-19T01:36:33.919Z,8.40
2019-02-19T01:39:05.239Z,8.40
2019-02-19T01:41:34.608Z,8.40
2019-02-19T01:44:03.906Z,8.30
2019-02-19T01:46:33.299Z,8.30
2019-02-19T01:49:02.624Z,8.30
2019-02-19T01:51:31.927Z,8.30
2019-02-19T01:54:01.123Z,8.30
2019-02-19T01:56:30.429Z,8.40
2019-02-19T01:58:59.813Z,8.30
2019-02-19T02:01:29.145Z,8.30
2019-02-19T02:04:00.361Z,8.30
2019-02-19T02:06:29.721Z,8.30
2019-02-19T02:08:59.089Z,8.30
2019-02-19T02:11:28.402Z,8.30
2019-02-19T02:13:57.680Z,8.20
2019-02-19T02:16:27.026Z,8.20
2019-02-19T02:18:56.436Z,8.20
2019-02-19T02:21:25.766Z,8.20
2019-02-19T02:23:55.188Z,8.20
2019-02-19T02:26:24.474Z,8.10
2019-02-19T02:28:53.734Z,8.10
2019-02-19T02:31:23.119Z,8.10
2019-02-19T02:33:52.483Z,8.10
2019-02-19T02:36:21.824Z,8.10
2019-02-19T02:38:51.139Z,8.10
2019-02-19T02:41:20.952Z,8.10
2019-02-19T02:43:50.310Z,8.10
2019-02-19T02:46:19.695Z,8.00
2019-02-19T02:48:48.985Z,8.00
2019-02-19T02:51:18.396Z,8.00
2019-02-19T02:53:47.653Z,7.90
2019-02-19T02:56:16.996Z,7.90
2019-02-19T02:58:46.356Z,7.90
2019-02-19T03:01:15.740Z,7.90
2019-02-19T03:03:45.097Z,8.00
2019-02-19T03:06:20.271Z,8.00
2019-02-19T03:08:49.612Z,8.00
2019-02-19T03:11:18.966Z,8.00
2019-02-19T03:13:48.247Z,7.90
2019-02-19T03:16:17.523Z,7.90
2019-02-19T03:18:46.875Z,7.90
2019-02-19T03:21:16.231Z,7.90
2019-02-19T03:23:45.614Z,7.90
2019-02-19T03:26:14.993Z,7.90
2019-02-19T03:28:44.300Z,7.90
2019-02-19T03:31:13.706Z,7.80
2019-02-19T03:33:43.035Z,7.80
2019-02-19T03:36:12.392Z,7.80
2019-02-19T03:38:41.668Z,7.80
2019-02-19T03:41:11.050Z,7.80
2019-02-19T03:43:40.394Z,7.80
2019-02-19T03:46:12.368Z,7.80
2019-02-19T03:48:40.642Z,7.80
2019-02-19T03:51:10.005Z,7.80
2019-02-19T03:53:39.352Z,7.80
2019-02-19T03:56:08.675Z,7.80
2019-02-19T03:58:38.056Z,7.80
2019-02-19T04:01:07.385Z,7.80
2019-02-19T04:03:36.664Z,7.80
2019-02-19T04:08:57.117Z,7.70
2019-02-19T04:11:26.437Z,7.70
2019-02-19T04:13:55.854Z,7.70
2019-02-19T04:16:25.181Z,7.60
2019-02-19T04:18:54.567Z,7.60
2019-02-19T04:21:23.914Z,7.60
2019-02-19T04:23:53.235Z,7.60
2019-02-19T04:26:22.588Z,7.60
2019-02-19T04:28:51.959Z,7.70
2019-02-19T04:31:21.319Z,7.60
2019-02-19T04:33:50.701Z,7.70
2019-02-19T04:36:20.106Z,7.60
2019-02-19T04:38:49.432Z,7.60
2019-02-19T04:41:19.417Z,7.60
2019-02-19T04:43:48.803Z,7.60
2019-02-19T04:46:18.143Z,7.60
2019-02-19T04:48:47.516Z,7.60
2019-02-19T04:51:16.878Z,7.60
2019-02-19T04:53:46.159Z,7.50
2019-02-19T04:56:15.469Z,7.50
2019-02-19T04:58:44.813Z,7.50
2019-02-19T05:01:14.199Z,7.40
2019-02-19T05:03:43.570Z,7.50
2019-02-19T05:06:12.935Z,7.40
2019-02-19T05:08:42.322Z,7.40
2019-02-19T05:11:30.785Z,7.40
2019-02-19T05:14:00.163Z,7.40
2019-02-19T05:16:29.520Z,7.40
2019-02-19T05:18:58.914Z,7.40
2019-02-19T05:21:28.336Z,7.40
2019-02-19T05:23:57.801Z,7.40
2019-02-19T05:26:27.240Z,7.40
2019-02-19T05:28:56.617Z,7.40
2019-02-19T05:31:25.955Z,7.30
2019-02-19T05:33:55.350Z,7.30
2019-02-19T05:36:24.722Z,7.30
2019-02-19T05:38:54.066Z,7.30
2019-02-19T05:41:23.445Z,7.30
2019-02-19T05:43:52.745Z,7.30
2019-02-19T05:46:22.113Z,7.20
2019-02-19T05:48:51.482Z,7.20
2019-02-19T05:51:20.862Z,7.20
2019-02-19T05:53:50.229Z,7.20
2019-02-19T05:56:19.628Z,7.10
2019-02-19T05:58:49.042Z,7.10
2019-02-19T06:01:18.378Z,7.10
2019-02-19T06:03:47.737Z,7.10
2019-02-19T06:06:17.094Z,7.00
2019-02-19T06:08:46.428Z,7.00
2019-02-19T06:11:15.789Z,7.00
2019-02-19T06:13:45.086Z,7.00
2019-02-19T06:16:14.450Z,7.00
2019-02-19T06:18:43.822Z,6.90
2019-02-19T06:21:13.201Z,6.90
2019-02-19T06:23:42.569Z,6.90
2019-02-19T06:26:11.970Z,6.80
2019-02-19T06:28:41.377Z,6.80
2019-02-19T06:31:10.740Z,6.70
2019-02-19T06:33:40.112Z,6.70
2019-02-19T06:36:09.393Z,6.70
2019-02-19T06:38:38.816Z,6.60
2019-02-19T06:41:08.158Z,6.60
2019-02-19T06:43:37.532Z,6.60
2019-02-19T06:46:06.912Z,6.60
2019-02-19T06:48:36.338Z,6.60
2019-02-19T06:51:05.684Z,6.60
2019-02-19T06:53:35.050Z,6.50
2019-02-19T06:56:04.308Z,6.50
2019-02-19T06:58:33.728Z,6.50
2019-02-19T07:01:03.137Z,6.50
2019-02-19T07:03:49.358Z,6.50
2019-02-19T07:06:18.768Z,6.50
2019-02-19T07:08:48.051Z,6.50
2019-02-19T07:11:17.329Z,6.50
2019-02-19T07:13:46.752Z,6.40
2019-02-19T07:16:16.120Z,6.40
2019-02-19T07:18:45.428Z,6.40
2019-02-19T07:21:14.799Z,6.40
2019-02-19T07:23:44.199Z,6.40
2019-02-19T07:26:13.564Z,6.40
2019-02-19T07:28:42.901Z,6.40
2019-02-19T07:31:13.661Z,6.40
2019-02-19T07:33:43.015Z,6.40
2019-02-19T07:36:12.373Z,6.50
2019-02-19T07:38:41.690Z,6.50
2019-02-19T07:41:11.056Z,6.50
2019-02-19T07:43:40.447Z,6.50
2019-02-19T07:46:09.778Z,6.50
2019-02-19T07:48:39.167Z,6.50
2019-02-19T07:51:08.480Z,6.50
2019-02-19T07:53:37.793Z,6.50
2019-02-19T07:56:07.047Z,6.60
2019-02-19T07:58:36.360Z,6.60
2019-02-19T08:01:05.773Z,6.60
2019-02-19T08:03:35.132Z,6.60
2019-02-19T08:06:04.487Z,6.70
2019-02-19T08:08:33.862Z,6.70
2019-02-19T08:11:03.186Z,6.80
2019-02-19T08:13:32.669Z,6.80
2019-02-19T08:16:02.116Z,6.90
2019-02-19T08:18:31.510Z,6.90
2019-02-19T08:21:00.868Z,6.90
2019-02-19T08:23:30.244Z,6.90
2019-02-19T08:25:59.687Z,7.00
2019-02-19T08:28:28.916Z,7.00
2019-02-19T08:30:58.377Z,7.10
2019-02-19T08:33:27.781Z,7.10
2019-02-19T08:35:57.195Z,7.20
2019-02-19T08:38:26.599Z,7.30
2019-02-19T08:40:56.013Z,7.30
2019-02-19T08:43:25.477Z,7.40
2019-02-19T08:45:54.951Z,7.40
2019-02-19T08:48:24.335Z,7.50
2019-02-19T08:50:53.717Z,7.50
2019-02-19T08:53:23.057Z,7.50
2019-02-19T08:55:52.380Z,7.60
2019-02-19T08:58:21.759Z,7.70
2019-02-19T09:00:51.168Z,7.70
2019-02-19T09:03:20.406Z,7.80
2019-02-19T09:05:49.714Z,7.80
2019-02-19T09:08:19.090Z,7.90
2019-02-19T09:10:48.517Z,7.90
2019-02-19T09:13:17.791Z,8.00
2019-02-19T09:15:47.185Z,8.10
2019-02-19T09:18:16.625Z,8.10
2019-02-19T09:20:46.012Z,8.10
2019-02-19T09:23:15.368Z,8.10
2019-02-19T09:25:44.627Z,8.00
2019-02-19T09:28:13.985Z,8.10
2019-02-19T09:30:43.370Z,8.10
2019-02-19T09:33:12.775Z,8.20
2019-02-19T09:35:42.136Z,8.30
2019-02-19T09:38:11.548Z,8.40
2019-02-19T09:40:40.962Z,8.40
2019-02-19T09:43:10.312Z,8.50
2019-02-19T09:45:39.604Z,8.50
2019-02-19T09:48:08.902Z,8.60
2019-02-19T09:50:38.535Z,8.70
2019-02-19T09:53:07.919Z,8.80
2019-02-19T09:55:37.288Z,8.80
2019-02-19T09:58:06.591Z,8.80
2019-02-19T10:00:35.881Z,8.90
2019-02-19T10:03:05.359Z,8.90
2019-02-19T10:05:34.647Z,9.10
2019-02-19T10:08:04.024Z,9.10
2019-02-19T10:10:33.427Z,9.20
2019-02-19T10:13:02.727Z,9.30
2019-02-19T10:15:32.030Z,9.40
2019-02-19T10:18:09.733Z,9.50
2019-02-19T10:20:33.023Z,9.60
2019-02-19T10:23:02.390Z,9.50
2019-02-19T10:25:31.761Z,9.60
2019-02-19T10:28:01.116Z,9.60
2019-02-19T10:30:30.484Z,9.60
2019-02-19T10:32:59.888Z,9.60
2019-02-19T10:35:29.268Z,9.50
2019-02-19T10:37:59.030Z,9.40
2019-02-19T10:40:28.412Z,9.50
2019-02-19T10:42:57.688Z,9.60
2019-02-19T10:45:27.065Z,9.80
2019-02-19T10:47:56.415Z,10.10
2019-02-19T10:50:25.781Z,10.20
2019-02-19T10:52:55.079Z,10.30
2019-02-19T10:55:24.465Z,10.40
2019-02-19T10:57:53.815Z,10.40
2019-02-19T11:00:24.349Z,10.30
2019-02-19T11:02:53.737Z,10.30
2019-02-19T11:05:23.135Z,10.40
2019-02-19T11:07:52.449Z,10.40
2019-02-19T11:10:21.827Z,10.20
2019-02-19T11:12:51.195Z,10.20
2019-02-19T11:15:20.690Z,10.30
2019-02-19T11:17:50.060Z,10.30
2019-02-19T11:20:19.550Z,10.50
2019-02-19T11:22:48.958Z,10.80
2019-02-19T11:25:18.352Z,11.00
2019-02-19T11:27:47.690Z,11.10
2019-02-19T11:30:17.517Z,11.20
2019-02-19T11:32:46.917Z,11.30
2019-02-19T11:35:16.296Z,11.40
2019-02-19T11:37:45.701Z,11.40
2019-02-19T11:40:14.963Z,11.40
2019-02-19T11:42:44.421Z,11.40
2019-02-19T11:45:14.562Z,11.50
2019-02-19T11:47:43.892Z,11.50
2019-02-19T11:50:13.544Z,11.50
2019-02-19T11:52:42.941Z,11.80
2019-02-19T11:55:13.054Z,11.80
2019-02-19T11:57:42.452Z,11.50
2019-02-19T12:00:15.452Z,11.40
2019-02-19T12:02:44.868Z,11.40
2019-02-19T12:05:14.240Z,11.40
2019-02-19T12:07:43.544Z,11.50
2019-02-19T12:10:12.933Z,11.70
2019-02-19T12:12:42.337Z,11.80
2019-02-19T12:15:11.700Z,12.00
2019-02-19T12:17:41.118Z,12.30
2019-02-19T12:20:10.538Z,12.30
2019-02-19T12:22:39.907Z,12.00
2019-02-19T12:25:09.297Z,11.60
2019-02-19T12:27:39.421Z,11.50
2019-02-19T12:30:10.275Z,11.50
2019-02-19T12:32:39.629Z,11.30
2019-02-19T12:35:09.397Z,11.20
2019-02-19T12:37:38.845Z,11.10
2019-02-19T12:40:09.283Z,11.50
2019-02-19T12:42:38.604Z,11.80
2019-02-19T12:45:09.054Z,12.20
2019-02-19T12:47:38.607Z,12.40
2019-02-19T12:50:09.892Z,12.40
2019-02-19T12:52:39.303Z,12.10
2019-02-19T12:55:09.627Z,12.00
2019-02-19T12:57:38.994Z,11.90
2019-02-19T13:00:11.099Z,11.80
2019-02-19T13:02:40.547Z,11.70
2019-02-19T13:05:11.086Z,11.60
2019-02-19T13:07:40.443Z,11.60
2019-02-19T13:10:10.381Z,11.50
2019-02-19T13:12:39.738Z,11.30
2019-02-19T13:15:11.190Z,11.20
2019-02-19T13:17:40.575Z,11.10
2019-02-19T13:20:11.527Z,11.10
2019-02-19T13:22:40.979Z,11.10
2019-02-19T13:25:10.575Z,11.00
2019-02-19T13:27:39.954Z,11.10
2019-02-19T13:30:11.804Z,11.20
2019-02-19T13:32:41.145Z,11.10
2019-02-19T13:35:11.422Z,11.20
2019-02-19T13:37:40.798Z,11.10
2019-02-19T13:40:11.286Z,11.20
2019-02-19T13:42:40.714Z,11.40
2019-02-19T13:45:11.360Z,11.50
2019-02-19T13:47:40.740Z,11.70
2019-02-19T13:50:12.516Z,11.80
2019-02-19T13:53:00.847Z,11.80
2019-02-19T13:55:33.571Z,11.70
2019-02-19T13:58:02.855Z,11.50
2019-02-19T14:00:33.216Z,11.40
2019-02-19T14:03:02.587Z,11.30
2019-02-19T14:05:31.999Z,11.20
2019-02-19T14:08:01.381Z,11.30
2019-02-19T14:10:30.763Z,11.10
2019-02-19T14:13:00.149Z,11.00
2019-02-19T14:15:51.275Z,11.00
2019-02-19T14:18:26.078Z,11.10
2019-02-19T14:21:20.312Z,11.00
2019-02-19T14:24:14.698Z,11.10
2019-02-19T14:27:18.151Z,11.20
2019-02-19T14:30:09.419Z,11.40
2019-02-19T14:33:06.624Z,11.70
2019-02-19T14:35:54.957Z,12.00
2019-02-19T14:38:46.298Z,11.90
2019-02-19T14:41:34.621Z,11.90
2019-02-19T14:44:34.862Z,11.90
2019-02-19T14:47:19.266Z,11.90
2019-02-19T14:50:07.096Z,12.00
2019-02-19T14:53:07.742Z,11.70
2019-02-19T14:55:54.726Z,11.30
2019-02-19T14:58:42.504Z,11.20
2019-02-19T15:01:36.904Z,11.00
2019-02-19T15:04:28.092Z,11.30
2019-02-19T15:07:15.134Z,11.40
2019-02-19T15:10:10.963Z,11.60
2019-02-19T15:12:49.596Z,11.40
2019-02-19T15:15:43.347Z,11.40
2019-02-19T15:18:47.011Z,11.30
2019-02-19T15:21:44.230Z,11.40
2019-02-19T15:24:23.730Z,11.80
2019-02-19T15:27:11.819Z,12.00
2019-02-19T15:30:09.815Z,12.00
2019-02-19T15:32:50.358Z,11.60
2019-02-19T15:35:41.649Z,11.40
2019-02-19T15:38:28.503Z,11.40
2019-02-19T15:41:19.650Z,11.60
2019-02-19T15:43:57.470Z,11.60
2019-02-19T15:46:44.058Z,11.50
2019-02-19T15:49:47.843Z,11.40
2019-02-19T15:52:25.924Z,11.30
2019-02-19T15:55:32.666Z,11.10
2019-02-19T15:58:20.669Z,10.90
2019-02-19T16:01:07.992Z,10.80
2019-02-19T16:03:52.969Z,10.60
2019-02-19T16:06:27.675Z,10.40
2019-02-19T16:09:34.143Z,10.30
2019-02-19T16:12:14.501Z,10.30
2019-02-19T16:15:01.534Z,10.20
2019-02-19T16:17:53.960Z,10.10
2019-02-19T16:20:45.797Z,10.10
2019-02-19T16:23:33.827Z,10.00
2019-02-19T16:26:21.036Z,10.00
2019-02-19T16:29:08.018Z,9.90
2019-02-19T16:32:02.365Z,9.80
2019-02-19T16:34:57.137Z,9.70
2019-02-19T16:37:51.322Z,9.70
2019-02-19T16:40:30.520Z,9.60
2019-02-19T16:43:18.842Z,9.50
2019-02-19T16:46:01.097Z,9.40
2019-02-19T16:48:49.426Z,9.40
2019-02-19T16:51:36.698Z,9.30
2019-02-19T16:54:17.142Z,9.30
2019-02-19T16:57:07.784Z,9.20
2019-02-19T16:59:57.935Z,9.20
2019-02-19T17:03:01.433Z,9.10
2019-02-19T17:05:45.585Z,9.10
2019-02-19T17:08:37.064Z,9.00
2019-02-19T17:11:31.722Z,9.00
2019-02-19T17:14:20.069Z,9.00
2019-02-19T17:17:23.544Z,9.00
2019-02-19T17:20:26.369Z,8.90
2019-02-19T17:23:04.994Z,8.90
2019-02-19T17:26:11.748Z,8.80
2019-02-19T17:29:05.807Z,8.80
2019-02-19T17:31:54.200Z,8.80
2019-02-19T17:34:49.952Z,8.70
2019-02-19T17:37:50.304Z,8.70
2019-02-19T17:40:51.258Z,8.60
2019-02-19T17:43:39.625Z,8.50
2019-02-19T17:46:27.946Z,8.50
2019-02-19T17:49:14.181Z,8.40
2019-02-19T17:52:00.854Z,8.40
2019-02-19T17:55:07.605Z,8.40
2019-02-19T17:57:43.162Z,8.40
2019-02-19T18:00:37.441Z,8.30
2019-02-19T18:03:33.093Z,8.30
2019-02-19T18:06:27.706Z,8.40
2019-02-19T18:09:25.793Z,8.30
2019-02-19T18:11:59.931Z,8.20
2019-02-19T18:14:48.339Z,8.20
2019-02-19T18:17:48.942Z,8.20
2019-02-19T18:20:18.378Z,8.20
2019-02-19T18:22:47.733Z,8.20
2019-02-19T18:25:17.094Z,8.20
2019-02-19T18:27:46.442Z,8.20
2019-02-19T18:30:15.870Z,8.20
2019-02-19T18:32:45.391Z,8.10
2019-02-19T18:35:14.711Z,8.20
2019-02-19T18:37:44.038Z,8.10
2019-02-19T18:40:13.407Z,8.10
2019-02-19T18:42:42.759Z,8.10
2019-02-19T18:45:12.102Z,8.10
2019-02-19T18:47:41.451Z,8.00
2019-02-19T18:50:10.741Z,8.00
2019-02-19T18:52:40.051Z,8.00
2019-02-19T18:55:09.527Z,8.00
2019-02-19T18:57:38.941Z,8.00
2019-02-19T19:00:09.607Z,7.90
2019-02-19T19:02:38.998Z,7.80
2019-02-19T19:05:08.527Z,7.80
2019-02-19T19:07:37.886Z,7.80
2019-02-19T19:10:08.011Z,7.80
2019-02-19T19:12:37.407Z,7.70
2019-02-19T19:15:07.115Z,7.70
2019-02-19T19:17:36.419Z,7.70
2019-02-19T19:20:05.972Z,7.70
2019-02-19T19:22:35.344Z,7.70
2019-02-19T19:25:04.822Z,7.70
2019-02-19T19:27:34.275Z,7.70
2019-02-19T19:30:03.727Z,7.60
2019-02-19T19:32:33.134Z,7.70
2019-02-19T19:35:09.365Z,7.60
2019-02-19T19:37:38.763Z,7.60
2019-02-19T19:40:08.400Z,7.60
2019-02-19T19:42:37.812Z,7.60
2019-02-19T19:45:07.491Z,7.50
2019-02-19T19:47:36.910Z,7.50
2019-02-19T19:50:06.515Z,7.50
2019-02-19T19:52:35.919Z,7.40
2019-02-19T19:55:05.436Z,7.40
2019-02-19T19:57:34.859Z,7.30
2019-02-19T20:00:04.393Z,7.30
2019-02-19T20:02:33.836Z,7.30
2019-02-19T20:05:03.270Z,7.30
2019-02-19T20:07:32.581Z,7.20
2019-02-19T20:10:01.970Z,7.10
2019-02-19T20:12:31.328Z,7.10
2019-02-19T20:15:00.746Z,7.10
2019-02-19T20:17:30.068Z,7.00
2019-02-19T20:19:59.482Z,7.00
2019-02-19T20:22:28.965Z,7.00
2019-02-19T20:24:58.381Z,7.00
2019-02-19T20:27:27.820Z,6.90
2019-02-19T20:29:57.408Z,6.90
2019-02-19T20:32:26.733Z,6.90
2019-02-19T20:34:56.207Z,6.80
2019-02-19T20:37:25.563Z,6.80
2019-02-19T20:39:56.543Z,6.70
2019-02-19T20:42:25.903Z,6.70
2019-02-19T20:44:55.251Z,6.70
2019-02-19T20:47:24.709Z,6.70
2019-02-19T20:49:54.105Z,6.70
2019-02-19T20:52:23.565Z,6.60
2019-02-19T20:54:52.961Z,6.60
2019-02-19T20:57:22.358Z,6.50
2019-02-19T20:59:51.765Z,6.50
2019-02-19T21:02:23.519Z,6.40
2019-02-19T21:04:52.887Z,6.40
2019-02-19T21:07:22.331Z,6.40
2019-02-19T21:09:51.738Z,6.30
2019-02-19T21:12:21.445Z,6.20
2019-02-19T21:14:50.900Z,6.20
2019-02-19T21:17:20.294Z,6.20
2019-02-19T21:19:49.669Z,6.10
2019-02-19T21:22:19.066Z,6.10
2019-02-19T21:24:48.435Z,6.00
2019-02-19T21:27:17.803Z,5.90
2019-02-19T21:29:47.130Z,5.80
2019-02-19T21:32:16.567Z,5.80
2019-02-19T21:34:45.955Z,5.80
2019-02-19T21:37:15.313Z,5.70
2019-02-19T21:39:44.729Z,5.60
2019-02-19T21:42:14.145Z,5.50
2019-02-19T21:44:43.519Z,5.50
2019-02-19T21:47:12.957Z,5.40
2019-02-19T21:49:42.766Z,5.30
2019-02-19T21:52:12.487Z,5.30
2019-02-19T21:54:41.870Z,5.30
2019-02-19T21:57:11.340Z,5.20
2019-02-19T21:59:40.786Z,5.20
2019-02-19T22:02:16.292Z,5.10
2019-02-19T22:04:41.238Z,5.10
2019-02-19T22:07:10.505Z,5.00
2019-02-19T22:09:39.860Z,5.00
2019-02-19T22:12:09.275Z,5.00
2019-02-19T22:14:40.109Z,4.90
2019-02-19T22:17:09.584Z,4.90
2019-02-19T22:19:39.068Z,4.90
2019-02-19T22:22:12.387Z,4.80
2019-02-19T22:24:41.803Z,4.80
2019-02-19T22:27:11.169Z,4.70
2019-02-19T22:29:40.523Z,4.70
2019-02-19T22:32:10.374Z,4.60
2019-02-19T22:34:39.723Z,4.60
2019-02-19T22:37:09.104Z,4.60
2019-02-19T22:39:38.572Z,4.60
2019-02-19T22:42:07.972Z,4.60
2019-02-19T22:44:37.324Z,4.60
2019-02-19T22:47:06.706Z,4.50
2019-02-19T22:49:36.180Z,4.50
2019-02-19T22:52:12.279Z,4.50
2019-02-19T22:54:55.538Z,4.50
2019-02-19T22:57:24.890Z,4.40
2019-02-19T22:59:54.238Z,4.40
2019-02-19T23:02:25.667Z,4.40
2019-02-19T23:04:55.046Z,4.30
2019-02-19T23:07:24.378Z,4.30
2019-02-19T23:09:53.923Z,4.30
2019-02-19T23:12:23.291Z,4.30
2019-02-19T23:14:52.589Z,4.30
2019-02-19T23:17:21.955Z,4.30
2019-02-19T23:19:51.241Z,4.30
2019-02-19T23:22:21.914Z,4.30
2019-02-19T23:24:51.442Z,4.30
2019-02-19T23:27:20.846Z,4.30
2019-02-19T23:29:50.190Z,4.30
2019-02-19T23:32:19.600Z,4.30
2019-02-19T23:34:56.350Z,4.30
2019-02-19T23:37:26.612Z,4.30
2019-02-19T23:39:55.967Z,4.20
2019-02-19T23:42:25.346Z,4.20
2019-02-19T23:44:54.616Z,4.20
2019-02-19T23:47:24.003Z,4.20
2019-02-19T23:49:53.350Z,4.10
2019-02-19T23:52:30.302Z,4.10
2019-02-19T23:54:53.705Z,4.10
2019-02-19T23:57:23.045Z,4.10
2019-02-19T23:59:52.421Z,4.00
